createdAt,value
2022-10-01T00:07:17.642Z,100533.97
2022-10-01T00:22:19.389Z,100535.75
2022-10-01T00:37:22.587Z,100548.81
2022-10-01T00:52:29.343Z,100554.78
2022-10-01T01:07:33.424Z,100555.38
2022-10-01T01:22:42.777Z,100566.13
2022-10-01T01:37:51.482Z,100564.97
2022-10-01T01:52:54.143Z,100568.44
2022-10-01T02:08:16.770Z,100564.22
2022-10-01T02:23:25.603Z,100563.16
2022-10-01T02:38:28.980Z,100570.75
2022-10-01T02:54:04.083Z,100586.28
2022-10-01T03:09:08.870Z,100590.22
2022-10-01T03:24:10.680Z,100590.56
2022-10-01T03:39:12.662Z,100597.22
2022-10-01T03:54:14.737Z,100599.63
2022-10-01T04:09:16.591Z,100603.78
2022-10-01T04:24:18.322Z,100607.28
2022-10-01T04:39:20.255Z,100616.91
2022-10-01T04:54:22.047Z,100625.50
2022-10-01T05:09:23.813Z,100638.59
2022-10-01T05:24:26.334Z,100621.25
2022-10-01T05:39:28.323Z,100617.19
2022-10-01T05:54:30.101Z,100612.44
2022-10-01T06:09:31.862Z,100620.56
2022-10-01T06:24:34.102Z,100631.19
2022-10-01T06:39:35.964Z,100641.28
2022-10-01T06:54:37.771Z,100633.09
2022-10-01T07:09:39.911Z,100621.16
2022-10-01T07:24:42.096Z,100626.97
2022-10-01T07:39:44.488Z,100634.63
2022-10-01T07:54:48.172Z,100630.06
2022-10-01T08:09:49.959Z,100639.56
2022-10-01T08:24:51.733Z,100647.19
2022-10-01T08:39:54.863Z,100655.50
2022-10-01T08:55:16.331Z,100621.50
2022-10-01T09:10:25.051Z,100594.53
2022-10-01T09:25:27.596Z,100615.16
2022-10-01T09:40:39.223Z,100600.66
2022-10-01T09:55:44.478Z,100579.50
2022-10-01T10:10:58.532Z,100577.28
2022-10-01T10:26:06.382Z,100555.59
2022-10-01T10:41:19.872Z,100530.25
2022-10-01T10:56:25.539Z,100513.75
2022-10-01T11:11:55.276Z,100502.13
2022-10-01T11:27:11.312Z,100480.13
2022-10-01T11:42:22.356Z,100458.25
2022-10-01T11:57:44.779Z,100444.22
2022-10-01T12:12:58.260Z,100428.50
2022-10-01T12:28:12.717Z,100416.41
2022-10-01T12:44:01.069Z,100406.38
2022-10-01T12:59:19.694Z,100401.44
2022-10-01T13:14:22.700Z,100393.41
2022-10-01T13:29:55.897Z,100383.06
2022-10-01T13:45:22.287Z,100371.03
2022-10-01T14:00:24.496Z,100362.75
2022-10-01T14:15:51.472Z,100343.63
2022-10-01T14:31:03.633Z,100335.81
2022-10-01T14:46:12.876Z,100329.53
2022-10-01T15:01:23.250Z,100317.19
2022-10-01T15:16:28.108Z,100316.38
2022-10-01T15:31:30.532Z,100320.38
2022-10-01T15:46:36.206Z,100298.66
2022-10-01T16:01:40.251Z,100289.59
2022-10-01T16:16:42.151Z,100289.44
2022-10-01T16:31:45.414Z,100276.56
2022-10-01T16:46:49.807Z,100255.88
2022-10-01T17:01:54.994Z,100247.06
2022-10-01T17:16:56.972Z,100223.59
2022-10-01T17:31:58.945Z,100211.97
2022-10-01T17:47:01.024Z,100186.16
2022-10-01T18:02:13.923Z,100191.72
2022-10-01T18:17:25.355Z,100173.50
2022-10-01T18:32:33.372Z,100169.66
2022-10-01T18:47:44.098Z,100160.84
2022-10-01T19:03:10.095Z,100148.16
2022-10-01T19:18:24.000Z,100151.69
2022-10-01T19:33:25.953Z,100114.22
2022-10-01T19:48:44.427Z,100103.22
2022-10-01T20:03:59.695Z,100089.38
2022-10-01T20:19:39.719Z,100066.47
2022-10-01T20:35:03.089Z,100065.94
2022-10-01T20:50:12.460Z,100060.53
2022-10-01T21:05:33.505Z,100049.91
2022-10-01T21:21:01.247Z,100042.78
2022-10-01T21:36:07.895Z,100019.50
2022-10-01T21:51:17.685Z,99999.13
2022-10-01T22:06:35.351Z,99979.03
2022-10-01T22:21:42.298Z,99968.81
2022-10-01T22:36:50.594Z,99938.09
2022-10-01T22:52:09.230Z,99911.34
2022-10-01T23:07:41.050Z,99897.06
2022-10-01T23:23:19.765Z,99867.97
2022-10-01T23:38:24.383Z,99855.69
2022-10-01T23:54:03.494Z,99837.31
